Time;durP1;ratioP1;P1;durP2;ratioP2;P2;SDS_P1;SDS_P2;PMS_P1;PMS_P2;Temp;Humidity;BMP_temperature;BMP_pressure;BME280_temperature;BME280_humidity;BME280_pressure;Samples;Min_cycle;Max_cycle;Signal;HPM_P1;HPM_P2
2020/12/02 00:00:27;;;;;;;2.50;1.55;;;22.60;37.60;;;;;;5034964;28;20033;-53
2020/12/02 00:03:18;;;;;;;1.60;1.35;;;22.60;37.60;;;;;;5036136;28;20358;-48
2020/12/02 00:05:49;;;;;;;2.28;1.40;;;22.60;37.60;;;;;;5035708;28;20120;-47
2020/12/02 00:08:35;;;;;;;2.15;1.33;;;22.60;37.60;;;;;;5034323;28;20329;-46
2020/12/02 00:11:03;;;;;;;2.40;1.60;;;22.60;37.60;;;;;;5033737;28;20040;-47
2020/12/02 00:13:33;;;;;;;1.80;1.58;;;22.50;37.60;;;;;;5036277;28;20029;-49
2020/12/02 00:16:00;;;;;;;2.40;1.60;;;22.50;37.60;;;;;;5032787;28;20033;-48
2020/12/02 00:18:28;;;;;;;2.58;1.50;;;22.50;37.60;;;;;;5035839;28;20050;-50
2020/12/02 00:20:53;;;;;;;2.72;1.67;;;22.50;37.60;;;;;;5036924;28;20030;-57
2020/12/02 00:23:19;;;;;;;3.17;1.63;;;22.50;37.60;;;;;;5034943;28;20088;-50
2020/12/02 00:25:45;;;;;;;2.42;1.67;;;22.50;37.70;;;;;;5035175;28;20030;-49
2020/12/02 00:28:13;;;;;;;1.80;1.50;;;22.50;37.70;;;;;;5034018;28;20018;-49
2020/12/02 00:30:41;;;;;;;2.35;1.60;;;22.50;37.70;;;;;;5034112;28;20022;-52
2020/12/02 00:33:15;;;;;;;2.85;1.73;;;22.50;37.70;;;;;;5035384;28;20033;-51
2020/12/02 00:35:41;;;;;;;2.30;1.88;;;22.40;37.70;;;;;;5034180;28;20059;-48
2020/12/02 00:38:10;;;;;;;2.40;1.67;;;22.40;37.70;;;;;;5018390;28;20044;-50
2020/12/02 00:40:37;;;;;;;2.33;1.77;;;22.40;37.70;;;;;;5033065;28;20087;-51
2020/12/02 00:43:04;;;;;;;2.10;1.60;;;22.40;37.70;;;;;;5034753;28;20473;-51
2020/12/02 00:45:30;;;;;;;3.58;1.50;;;22.40;37.70;;;;;;5031421;28;20022;-50
2020/12/02 00:47:57;;;;;;;2.22;1.67;;;22.40;37.70;;;;;;5032187;28;20091;-48
2020/12/02 00:50:23;;;;;;;2.45;1.67;;;22.40;37.70;;;;;;5035923;28;20034;-49
2020/12/02 00:53:08;;;;;;;1.73;1.60;;;22.40;37.70;;;;;;5017876;28;20029;-49
2020/12/02 00:55:34;;;;;;;2.30;1.70;;;22.40;37.70;;;;;;5016243;28;20031;-48
2020/12/02 00:58:02;;;;;;;1.70;1.52;;;22.40;37.70;;;;;;5016528;28;20124;-51
2020/12/02 01:00:40;;;;;;;2.08;1.50;;;22.30;37.60;;;;;;5029529;28;20032;-53
2020/12/02 01:03:29;;;;;;;3.00;1.90;;;22.40;37.70;;;;;;5035552;28;20036;-51
2020/12/02 01:05:57;;;;;;;2.20;1.60;;;22.30;37.60;;;;;;5032827;28;20145;-52
2020/12/02 01:08:28;;;;;;;2.40;1.63;;;22.30;37.70;;;;;;5034895;28;20025;-49
2020/12/02 01:11:24;;;;;;;1.90;1.60;;;22.30;37.70;;;;;;5037500;28;20025;-52
2020/12/02 01:13:57;;;;;;;2.03;1.80;;;22.30;37.60;;;;;;5033557;28;20040;-48
2020/12/02 01:16:47;;;;;;;2.45;1.80;;;22.30;37.70;;;;;;5033774;28;20371;-52
2020/12/02 01:19:16;;;;;;;1.80;1.50;;;22.30;37.70;;;;;;5022414;28;20057;-49
2020/12/02 01:21:50;;;;;;;2.30;1.70;;;22.30;37.70;;;;;;5032807;28;20033;-51
2020/12/02 01:24:21;;;;;;;2.17;1.60;;;22.20;37.70;;;;;;5035261;28;20408;-49
2020/12/02 01:27:31;;;;;;;2.70;1.90;;;22.20;37.70;;;;;;5033508;28;20198;-51
2020/12/02 01:29:58;;;;;;;2.28;1.73;;;22.20;37.70;;;;;;5018072;28;20040;-53
2020/12/02 01:32:24;;;;;;;2.10;1.67;;;22.20;37.70;;;;;;5032758;28;20057;-53
2020/12/02 01:34:52;;;;;;;3.72;1.40;;;22.20;37.70;;;;;;5034076;28;20040;-49
2020/12/02 01:37:29;;;;;;;2.00;1.80;;;22.20;37.70;;;;;;5030012;28;20075;-49
2020/12/02 01:40:06;;;;;;;2.25;1.80;;;22.20;37.70;;;;;;5032180;28;20040;-50
2020/12/02 01:42:32;;;;;;;2.10;1.70;;;22.20;37.80;;;;;;5027548;28;20112;-48
2020/12/02 01:44:59;;;;;;;2.75;1.70;;;22.20;37.80;;;;;;5029533;28;20448;-50
2020/12/02 01:47:49;;;;;;;3.05;2.22;;;22.10;38.40;;;;;;5028683;28;20087;-55
2020/12/02 01:50:53;;;;;;;2.78;1.98;;;22.20;37.80;;;;;;5030954;28;20097;-50
2020/12/02 01:53:33;;;;;;;1.75;1.60;;;22.10;37.80;;;;;;5032755;28;20360;-52
2020/12/02 01:56:08;;;;;;;2.10;1.73;;;22.10;37.80;;;;;;5032134;28;20041;-55
2020/12/02 01:58:41;;;;;;;2.67;2.00;;;22.10;37.80;;;;;;5032374;28;20041;-51
2020/12/02 02:01:13;;;;;;;1.95;1.75;;;22.10;37.80;;;;;;5014218;28;20364;-51
2020/12/02 02:03:40;;;;;;;2.25;1.85;;;22.10;37.80;;;;;;5034000;28;20103;-51
2020/12/02 02:06:14;;;;;;;2.55;1.83;;;22.10;37.80;;;;;;5031732;28;20092;-49
2020/12/02 02:08:42;;;;;;;2.15;1.73;;;22.10;37.80;;;;;;5034087;28;20091;-51
2020/12/02 02:11:15;;;;;;;2.13;1.80;;;22.10;37.90;;;;;;5028960;28;20034;-49
2020/12/02 02:14:13;;;;;;;2.03;1.70;;;22.10;38.10;;;;;;5031807;28;20021;-49
2020/12/02 02:16:42;;;;;;;2.20;1.83;;;22.10;38.10;;;;;;5031249;28;20567;-48
2020/12/02 02:19:19;;;;;;;2.15;1.58;;;22.10;38.10;;;;;;5031558;28;20042;-52
2020/12/02 02:21:47;;;;;;;2.05;1.75;;;22.10;38.10;;;;;;5033520;28;20491;-49
2020/12/02 02:24:12;;;;;;;2.45;1.75;;;22.10;38.10;;;;;;5031028;28;20094;-51
2020/12/02 02:26:41;;;;;;;1.92;1.70;;;22.00;38.00;;;;;;5030830;28;20113;-52
2020/12/02 02:29:16;;;;;;;2.42;1.90;;;22.10;38.10;;;;;;5031022;28;20116;-48
2020/12/02 02:32:12;;;;;;;2.55;1.90;;;22.00;38.00;;;;;;5031893;28;20037;-49
2020/12/02 02:34:41;;;;;;;2.75;1.85;;;22.00;38.00;;;;;;5012373;28;20128;-50
2020/12/02 02:37:11;;;;;;;2.45;2.15;;;22.00;38.00;;;;;;5030438;28;20112;-50
2020/12/02 02:39:38;;;;;;;2.08;1.88;;;22.00;38.00;;;;;;5033098;28;20045;-51
2020/12/02 02:42:08;;;;;;;3.38;1.67;;;22.00;38.00;;;;;;5031839;28;20026;-54
2020/12/02 02:44:34;;;;;;;2.20;1.80;;;22.00;38.00;;;;;;5032152;28;20038;-53
2020/12/02 02:47:01;;;;;;;2.60;2.15;;;22.00;38.00;;;;;;5029673;28;20083;-50
2020/12/02 02:49:27;;;;;;;2.78;1.90;;;22.00;38.00;;;;;;5028986;28;20029;-49
2020/12/02 02:51:53;;;;;;;3.17;2.50;;;22.00;38.00;;;;;;5033603;28;20021;-51
2020/12/02 02:54:19;;;;;;;2.90;2.05;;;22.00;38.00;;;;;;5031960;28;20168;-52
2020/12/02 02:56:45;;;;;;;2.95;2.00;;;21.90;38.00;;;;;;5032081;28;20045;-50
2020/12/02 02:59:11;;;;;;;2.75;2.10;;;22.00;38.10;;;;;;5032280;28;20037;-52
2020/12/02 03:01:42;;;;;;;2.28;2.00;;;21.90;38.00;;;;;;5012106;28;20044;-54
2020/12/02 03:04:09;;;;;;;2.13;1.92;;;21.90;38.00;;;;;;5031057;28;20128;-52
2020/12/02 03:06:37;;;;;;;2.72;2.03;;;21.90;38.00;;;;;;5032391;28;20036;-52
2020/12/02 03:09:04;;;;;;;2.47;2.10;;;21.90;38.00;;;;;;5030840;28;20404;-52
2020/12/02 03:11:30;;;;;;;2.85;2.15;;;21.90;38.00;;;;;;5033066;28;20128;-50
2020/12/02 03:13:56;;;;;;;2.83;2.13;;;21.90;38.00;;;;;;5028423;28;20124;-51
2020/12/02 03:16:34;;;;;;;2.20;2.00;;;21.90;38.00;;;;;;5031645;28;20033;-52
2020/12/02 03:19:07;;;;;;;2.95;2.10;;;21.90;38.10;;;;;;5031583;28;20041;-55
2020/12/02 03:21:33;;;;;;;3.10;2.30;;;21.90;38.00;;;;;;5031387;28;20021;-48
2020/12/02 03:23:59;;;;;;;2.80;2.50;;;21.90;38.00;;;;;;5031115;28;20025;-54
2020/12/02 03:26:25;;;;;;;2.65;2.10;;;21.90;38.00;;;;;;5032544;28;20448;-48
2020/12/02 03:28:51;;;;;;;2.75;2.10;;;21.90;38.00;;;;;;5030598;28;20034;-50
2020/12/02 03:31:20;;;;;;;3.60;2.42;;;21.90;38.10;;;;;;5028245;28;20456;-50
2020/12/02 03:33:47;;;;;;;2.40;1.92;;;21.90;38.10;;;;;;5032764;28;20372;-49
2020/12/02 03:36:16;;;;;;;2.88;2.28;;;21.80;38.00;;;;;;5030937;28;20063;-52
2020/12/02 03:38:43;;;;;;;2.63;2.13;;;21.90;38.10;;;;;;5030439;28;20133;-47
2020/12/02 03:41:09;;;;;;;2.72;2.22;;;21.80;38.00;;;;;;5030853;28;20313;-51
2020/12/02 03:43:35;;;;;;;2.10;1.90;;;21.80;38.00;;;;;;5031061;28;20465;-52
2020/12/02 03:46:01;;;;;;;2.63;1.98;;;21.80;38.10;;;;;;5029096;28;20034;-53
2020/12/02 03:48:27;;;;;;;2.88;2.55;;;21.80;38.10;;;;;;5031676;28;20033;-49
2020/12/02 03:50:53;;;;;;;2.67;2.10;;;21.80;38.00;;;;;;5028493;28;20030;-55
2020/12/02 03:53:19;;;;;;;2.72;2.10;;;21.80;38.10;;;;;;5030485;28;20032;-54
2020/12/02 03:55:46;;;;;;;2.60;2.35;;;21.80;38.10;;;;;;5027803;28;20052;-50
2020/12/02 03:58:12;;;;;;;2.72;2.38;;;21.80;38.10;;;;;;5026292;28;20033;-47
2020/12/02 04:00:38;;;;;;;2.53;2.10;;;21.80;38.10;;;;;;5029995;28;20037;-50
2020/12/02 04:03:05;;;;;;;2.47;2.10;;;21.70;38.00;;;;;;5031040;28;20030;-47
2020/12/02 04:05:30;;;;;;;2.70;2.20;;;21.80;38.10;;;;;;5030323;28;20029;-49
2020/12/02 04:07:56;;;;;;;2.90;2.15;;;21.80;38.10;;;;;;5030672;28;20033;-52
2020/12/02 04:10:22;;;;;;;2.38;2.17;;;21.80;38.20;;;;;;5031840;28;20387;-53
2020/12/02 04:12:48;;;;;;;2.72;2.25;;;21.70;38.10;;;;;;5032144;28;20061;-50
2020/12/02 04:15:16;;;;;;;2.90;2.35;;;21.70;38.10;;;;;;5030130;28;20348;-48
2020/12/02 04:17:43;;;;;;;2.95;2.40;;;21.80;38.80;;;;;;5034779;28;20056;-47
2020/12/02 04:20:09;;;;;;;3.05;2.42;;;21.70;38.10;;;;;;5030734;28;20050;-51
2020/12/02 04:22:35;;;;;;;2.88;2.20;;;21.70;38.10;;;;;;5032501;28;20041;-51
2020/12/02 04:25:05;;;;;;;3.15;2.35;;;21.70;38.10;;;;;;5031035;28;20034;-47
2020/12/02 04:27:31;;;;;;;2.95;2.38;;;21.70;38.20;;;;;;5032645;28;20033;-50
2020/12/02 04:29:57;;;;;;;3.47;2.40;;;21.70;38.10;;;;;;5031586;28;20038;-51
2020/12/02 04:32:23;;;;;;;3.13;2.22;;;21.70;38.20;;;;;;5027739;28;20025;-51
2020/12/02 04:34:49;;;;;;;2.30;2.00;;;21.70;38.10;;;;;;5030762;28;20112;-49
2020/12/02 04:37:15;;;;;;;2.90;2.30;;;21.70;38.10;;;;;;5031169;28;20091;-52
2020/12/02 04:39:41;;;;;;;2.88;2.45;;;21.70;38.10;;;;;;5031276;28;20049;-51
2020/12/02 04:42:09;;;;;;;3.33;2.47;;;21.70;38.20;;;;;;5032985;28;20400;-51
2020/12/02 04:44:35;;;;;;;2.55;2.35;;;21.70;38.10;;;;;;5035707;28;20040;-48
2020/12/02 04:47:01;;;;;;;2.65;2.22;;;21.70;38.10;;;;;;5035172;28;20060;-53
2020/12/02 04:49:30;;;;;;;2.95;2.55;;;21.70;38.10;;;;;;5038064;28;20029;-55
2020/12/02 04:52:14;;;;;;;2.45;2.20;;;21.70;38.20;;;;;;5030044;28;20445;-52
2020/12/02 04:54:41;;;;;;;3.33;2.30;;;21.70;38.10;;;;;;5034750;28;20030;-53
2020/12/02 04:57:09;;;;;;;2.55;2.33;;;21.60;38.20;;;;;;5033575;28;20108;-50
2020/12/02 04:59:40;;;;;;;2.47;2.20;;;21.60;38.10;;;;;;5035395;28;20387;-51
2020/12/02 05:02:07;;;;;;;2.50;2.30;;;21.60;38.10;;;;;;5032906;28;20025;-48
2020/12/02 05:04:33;;;;;;;2.42;2.00;;;21.60;38.20;;;;;;5034260;28;20021;-54
2020/12/02 05:07:04;;;;;;;2.53;2.30;;;21.60;38.20;;;;;;5032206;28;20040;-47
2020/12/02 05:09:32;;;;;;;2.83;2.15;;;21.60;38.10;;;;;;5035005;28;20112;-48
2020/12/02 05:12:14;;;;;;;3.15;2.40;;;21.60;38.10;;;;;;5034942;28;20457;-50
2020/12/02 05:14:42;;;;;;;2.88;2.25;;;21.60;38.20;;;;;;5034838;28;20108;-54
2020/12/02 05:17:24;;;;;;;2.75;2.10;;;21.60;38.10;;;;;;5017259;28;20067;-52
2020/12/02 05:20:29;;;;;;;2.78;2.45;;;21.60;38.10;;;;;;5031312;28;20050;-47
2020/12/02 05:22:55;;;;;;;2.70;2.00;;;21.60;38.10;;;;;;5032450;28;20064;-47
2020/12/02 05:25:34;;;;;;;2.60;2.10;;;21.60;38.20;;;;;;5034142;28;20648;-49
2020/12/02 05:28:05;;;;;;;3.40;2.53;;;21.50;38.10;;;;;;5032444;28;20075;-50
2020/12/02 05:30:35;;;;;;;4.32;2.55;;;21.50;38.10;;;;;;5033112;28;20341;-51
2020/12/02 05:33:10;;;;;;;3.53;2.50;;;21.50;38.10;;;;;;5033578;28;20022;-53
2020/12/02 05:35:38;;;;;;;2.78;2.30;;;21.50;38.20;;;;;;5032132;28;20029;-48
2020/12/02 05:38:08;;;;;;;3.35;2.55;;;21.50;38.20;;;;;;5031723;28;20022;-49
2020/12/02 05:40:34;;;;;;;4.05;2.60;;;21.50;38.10;;;;;;5032112;28;20083;-50
2020/12/02 05:43:14;;;;;;;2.92;2.63;;;21.50;38.20;;;;;;5034043;28;20495;-51
2020/12/02 05:45:44;;;;;;;3.78;2.60;;;21.50;38.20;;;;;;5032460;28;20029;-46
2020/12/02 05:48:17;;;;;;;2.90;2.47;;;21.50;38.20;;;;;;5033798;28;20033;-52
2020/12/02 05:50:44;;;;;;;2.90;2.42;;;21.50;38.10;;;;;;5033429;28;20029;-51
2020/12/02 05:53:26;;;;;;;3.25;2.47;;;21.50;38.20;;;;;;5031573;28;20047;-50
2020/12/02 05:55:53;;;;;;;3.22;2.45;;;21.50;38.10;;;;;;5031555;28;20457;-51
2020/12/02 05:58:24;;;;;;;3.20;2.40;;;21.50;38.10;;;;;;5032010;28;20413;-53
2020/12/02 06:00:49;;;;;;;2.65;2.45;;;21.50;38.20;;;;;;5032124;28;20053;-53
2020/12/02 06:03:18;;;;;;;3.13;2.40;;;21.50;38.20;;;;;;5033497;28;20099;-51
2020/12/02 06:05:45;;;;;;;3.20;2.50;;;21.50;38.20;;;;;;5032857;28;20025;-51
2020/12/02 06:08:53;;;;;;;3.10;2.30;;;21.50;38.20;;;;;;5032336;28;20079;-51
2020/12/02 06:11:22;;;;;;;2.83;2.30;;;21.50;38.30;;;;;;5033592;28;20037;-51
2020/12/02 06:13:52;;;;;;;3.15;2.50;;;21.40;38.30;;;;;;5032417;28;20029;-51
2020/12/02 06:16:24;;;;;;;2.83;2.20;;;21.40;38.30;;;;;;5031678;28;20111;-52
2020/12/02 06:18:50;;;;;;;2.80;2.30;;;21.40;38.30;;;;;;5032173;28;20372;-55
2020/12/02 06:21:46;;;;;;;3.42;2.55;;;21.40;38.30;;;;;;5032388;28;20030;-49
2020/12/02 06:24:41;;;;;;;3.63;2.40;;;21.40;38.20;;;;;;5031736;28;20030;-53
2020/12/02 06:27:30;;;;;;;2.85;2.38;;;21.40;38.40;;;;;;5033801;28;20037;-51
2020/12/02 06:30:10;;;;;;;2.78;2.17;;;21.40;38.50;;;;;;5020141;28;20041;-49
2020/12/02 06:32:37;;;;;;;3.78;2.70;;;21.50;38.60;;;;;;5030340;28;20104;-50
2020/12/02 06:35:20;;;;;;;3.40;2.33;;;21.50;38.60;;;;;;5031668;28;20022;-50
2020/12/02 06:38:11;;;;;;;4.93;2.17;;;21.50;38.60;;;;;;5032080;28;20044;-55
2020/12/02 06:40:44;;;;;;;2.83;2.20;;;21.40;38.50;;;;;;5028496;28;20038;-49
2020/12/02 06:43:14;;;;;;;3.08;2.40;;;21.40;38.50;;;;;;5031138;28;20174;-51
2020/12/02 06:45:40;;;;;;;2.50;2.20;;;21.40;38.50;;;;;;5033655;28;20025;-47
2020/12/02 06:48:26;;;;;;;2.42;2.05;;;21.40;38.50;;;;;;5028390;28;20044;-50
2020/12/02 06:50:57;;;;;;;2.58;2.30;;;21.40;38.50;;;;;;5032053;28;20044;-50
2020/12/02 06:53:24;;;;;;;2.78;2.30;;;21.40;38.50;;;;;;5033796;28;20032;-50
2020/12/02 06:56:01;;;;;;;2.40;2.13;;;21.40;38.50;;;;;;5030557;28;20025;-51
2020/12/02 06:58:27;;;;;;;2.88;2.20;;;21.40;38.50;;;;;;5030035;28;20045;-53
2020/12/02 07:00:59;;;;;;;3.00;2.33;;;21.40;38.50;;;;;;5032198;28;20048;-52
2020/12/02 07:03:39;;;;;;;3.33;2.67;;;21.40;38.50;;;;;;5012972;28;20026;-52
2020/12/02 07:06:23;;;;;;;2.42;2.08;;;21.40;38.50;;;;;;5031720;28;20027;-51
2020/12/02 07:09:04;;;;;;;2.92;2.50;;;21.30;39.00;;;;;;5032887;28;20048;-52
2020/12/02 07:11:32;;;;;;;2.58;2.30;;;21.40;38.50;;;;;;5031481;28;20072;-53
2020/12/02 07:14:21;;;;;;;3.75;2.10;;;21.40;38.50;;;;;;5026984;28;20338;-52
2020/12/02 07:16:47;;;;;;;2.20;2.00;;;21.40;38.50;;;;;;5030850;28;20480;-50
2020/12/02 07:19:16;;;;;;;3.20;2.35;;;21.30;38.40;;;;;;5031206;28;20041;-54
2020/12/02 07:21:59;;;;;;;3.03;2.42;;;21.30;39.00;;;;;;5032290;28;20041;-54
2020/12/02 07:24:46;;;;;;;2.47;2.28;;;21.30;38.40;;;;;;5031330;28;20029;-49
2020/12/02 07:27:14;;;;;;;3.13;2.42;;;21.30;38.40;;;;;;5032362;28;20033;-55
2020/12/02 07:29:40;;;;;;;3.05;2.35;;;21.30;38.40;;;;;;5029454;28;20029;-54
2020/12/02 07:32:20;;;;;;;3.00;2.30;;;21.30;38.40;;;;;;5031077;28;20018;-54
2020/12/02 07:34:47;;;;;;;2.85;2.25;;;21.30;38.50;;;;;;5030994;28;20034;-49
2020/12/02 07:37:17;;;;;;;3.15;2.20;;;21.30;38.60;;;;;;5030029;28;20028;-50
2020/12/02 07:39:54;;;;;;;2.47;2.00;;;21.30;38.60;;;;;;5026642;28;20363;-53
2020/12/02 07:42:37;;;;;;;4.20;2.80;;;21.30;38.60;;;;;;5031177;28;20030;-50
2020/12/02 07:45:15;;;;;;;4.18;2.70;;;21.30;38.60;;;;;;5029009;28;20117;-48
2020/12/02 07:47:52;;;;;;;2.78;2.30;;;21.30;38.50;;;;;;5032944;28;20025;-51
2020/12/02 07:50:39;;;;;;;4.15;2.60;;;21.30;38.60;;;;;;5036478;28;20037;-49
2020/12/02 07:53:13;;;;;;;5.57;2.67;;;21.30;38.60;;;;;;5031013;28;20057;-51
2020/12/02 07:55:49;;;;;;;6.85;2.83;;;21.30;39.20;;;;;;5028050;28;20060;-51
2020/12/02 07:58:42;;;;;;;6.00;3.17;;;21.30;38.60;;;;;;5021919;28;20044;-49
2020/12/02 08:01:30;;;;;;;4.32;2.72;;;21.30;38.60;;;;;;5030672;28;20021;-52
2020/12/02 08:03:56;;;;;;;7.82;3.65;;;21.30;38.60;;;;;;5030473;28;20131;-53
2020/12/02 08:06:42;;;;;;;4.97;3.08;;;21.20;38.60;;;;;;5030591;28;20029;-54
2020/12/02 08:09:08;;;;;;;5.03;3.00;;;21.20;38.60;;;;;;5026458;28;20029;-56
2020/12/02 08:11:34;;;;;;;6.65;3.78;;;21.30;38.60;;;;;;5020924;28;20026;-55
2020/12/02 08:14:00;;;;;;;6.20;3.38;;;21.30;38.70;;;;;;5021771;28;20083;-50
2020/12/02 08:16:40;;;;;;;5.53;3.17;;;21.30;38.60;;;;;;5030482;28;20059;-48
2020/12/02 08:19:09;;;;;;;5.43;3.20;;;21.20;38.60;;;;;;5030626;28;20052;-48
2020/12/02 08:21:36;;;;;;;6.07;3.28;;;21.20;38.60;;;;;;5024516;28;20103;-49
2020/12/02 08:24:24;;;;;;;4.75;2.85;;;21.30;38.70;;;;;;5026776;28;20025;-47
2020/12/02 08:26:51;;;;;;;5.00;2.83;;;21.30;38.70;;;;;;5025952;28;20037;-46
2020/12/02 08:29:23;;;;;;;6.70;3.35;;;21.20;38.60;;;;;;5031439;28;20448;-52
2020/12/02 08:32:04;;;;;;;6.57;3.22;;;21.30;38.80;;;;;;5033072;28;20029;-49
2020/12/02 08:34:33;;;;;;;4.85;3.10;;;21.20;38.70;;;;;;5031102;28;20036;-52
2020/12/02 08:37:11;;;;;;;5.10;2.88;;;21.20;38.80;;;;;;5033149;28;20038;-50
2020/12/02 08:39:39;;;;;;;4.68;3.10;;;21.20;38.80;;;;;;5033823;28;20081;-50
2020/12/02 08:42:06;;;;;;;6.38;3.47;;;21.20;38.90;;;;;;5037774;28;20084;-49
2020/12/02 08:44:32;;;;;;;5.78;3.00;;;21.20;38.90;;;;;;5034257;28;20079;-48
2020/12/02 08:47:07;;;;;;;5.95;3.40;;;21.30;39.00;;;;;;5033434;28;20034;-54
2020/12/02 08:49:35;;;;;;;6.15;3.40;;;21.30;39.10;;;;;;5036848;28;20056;-49
2020/12/02 08:52:01;;;;;;;5.40;3.30;;;21.40;39.20;;;;;;5031065;28;20359;-50
2020/12/02 08:54:27;;;;;;;6.00;3.35;;;21.40;39.10;;;;;;5035255;28;20029;-48
2020/12/02 08:57:05;;;;;;;6.22;3.38;;;21.40;39.00;;;;;;5032215;28;20036;-50
2020/12/02 08:59:34;;;;;;;5.22;3.22;;;21.50;39.00;;;;;;5025673;28;20495;-52
2020/12/02 09:02:12;;;;;;;5.45;2.97;;;21.60;39.00;;;;;;5026481;28;20073;-51
2020/12/02 09:04:38;;;;;;;4.78;2.72;;;21.70;39.00;;;;;;5029824;28;20053;-50
2020/12/02 09:07:04;;;;;;;5.25;2.85;;;21.70;39.00;;;;;;5031823;28;20459;-48
2020/12/02 09:09:30;;;;;;;5.18;3.03;;;21.80;38.90;;;;;;5037240;28;20112;-48
2020/12/02 09:11:55;;;;;;;5.07;2.67;;;21.90;38.90;;;;;;5036908;28;20043;-49
2020/12/02 09:14:21;;;;;;;4.22;2.95;;;21.90;38.80;;;;;;5036950;28;20044;-49
2020/12/02 09:16:47;;;;;;;4.60;2.97;;;22.00;38.70;;;;;;5036976;28;20098;-46
2020/12/02 09:19:16;;;;;;;6.60;2.50;;;22.00;38.60;;;;;;5036593;28;20049;-47
2020/12/02 09:21:42;;;;;;;4.07;2.30;;;22.10;38.60;;;;;;5036049;28;20041;-48
2020/12/02 09:24:08;;;;;;;4.28;2.40;;;22.20;38.50;;;;;;5017603;28;20034;-48
2020/12/02 09:26:34;;;;;;;3.60;2.47;;;22.30;38.40;;;;;;4999484;28;20399;-49
2020/12/02 09:29:03;;;;;;;3.70;2.58;;;22.30;38.30;;;;;;5016011;28;20049;-51
2020/12/02 09:31:30;;;;;;;3.97;2.40;;;22.40;38.30;;;;;;5016718;28;20034;-49
2020/12/02 09:33:56;;;;;;;3.15;2.30;;;22.50;38.20;;;;;;5016752;28;20328;-47
2020/12/02 09:36:24;;;;;;;4.82;2.13;;;22.60;38.10;;;;;;5025065;28;20037;-48
2020/12/02 09:38:51;;;;;;;3.40;2.05;;;22.60;38.00;;;;;;5019689;28;20368;-52
2020/12/02 09:41:23;;;;;;;3.78;2.38;;;22.70;38.00;;;;;;5036059;28;20040;-50
2020/12/02 09:44:01;;;;;;;3.95;2.10;;;22.70;37.90;;;;;;5036396;28;20037;-53
2020/12/02 09:46:29;;;;;;;3.83;1.90;;;22.80;37.80;;;;;;5036317;28;20111;-50
2020/12/02 09:48:55;;;;;;;3.10;2.20;;;22.90;37.70;;;;;;5028997;28;20037;-53
2020/12/02 09:51:25;;;;;;;2.67;1.75;;;22.90;37.70;;;;;;5024684;28;20018;-52
2020/12/02 09:53:53;;;;;;;3.08;1.77;;;23.00;37.60;;;;;;5035392;28;20441;-52
2020/12/02 09:56:19;;;;;;;3.15;1.80;;;23.00;37.50;;;;;;5034429;28;20087;-49
2020/12/02 09:58:45;;;;;;;3.28;1.90;;;23.00;37.50;;;;;;5034084;28;20362;-50
2020/12/02 10:01:20;;;;;;;2.55;1.90;;;23.00;37.30;;;;;;5036119;28;20348;-51
2020/12/02 10:04:22;;;;;;;3.30;1.60;;;23.10;37.30;;;;;;5036115;28;20029;-48
2020/12/02 10:07:17;;;;;;;1.98;1.60;;;23.10;37.20;;;;;;5035850;28;20030;-51
2020/12/02 10:09:57;;;;;;;2.17;1.60;;;23.10;37.20;;;;;;5017144;28;20476;-48
2020/12/02 10:12:34;;;;;;;2.05;1.80;;;23.10;37.10;;;;;;5020288;28;20029;-54
2020/12/02 10:15:22;;;;;;;2.65;1.70;;;23.10;37.10;;;;;;5016083;28;20117;-51
2020/12/02 10:18:06;;;;;;;3.13;1.55;;;23.10;37.00;;;;;;5015818;28;20025;-54
2020/12/02 10:20:46;;;;;;;2.15;1.50;;;23.10;37.00;;;;;;4999658;28;20121;-49
2020/12/02 10:23:45;;;;;;;3.83;1.83;;;23.10;37.00;;;;;;5000397;28;20025;-49
2020/12/02 10:26:29;;;;;;;2.20;1.50;;;23.10;37.20;;;;;;5005322;28;20099;-54
2020/12/02 10:28:59;;;;;;;1.75;1.35;;;23.10;37.00;;;;;;5015682;28;20434;-51
2020/12/02 10:31:51;;;;;;;2.70;1.55;;;23.10;37.00;;;;;;5003350;28;20049;-48
2020/12/02 10:34:19;;;;;;;2.70;1.52;;;23.10;37.00;;;;;;5004011;28;20046;-55
2020/12/02 10:36:53;;;;;;;2.58;1.73;;;23.00;37.00;;;;;;4996241;28;20113;-53
2020/12/02 10:39:25;;;;;;;2.90;1.73;;;23.00;37.00;;;;;;4994823;28;20050;-55
2020/12/02 10:41:57;;;;;;;2.53;1.60;;;23.00;37.00;;;;;;5000511;28;20053;-53
2020/12/02 10:44:50;;;;;;;2.38;1.38;;;23.00;37.00;;;;;;4999529;28;20038;-54
2020/12/02 10:47:18;;;;;;;1.98;1.40;;;23.00;37.00;;;;;;5009331;28;20038;-50
2020/12/02 10:49:46;;;;;;;1.60;1.30;;;23.00;37.00;;;;;;5015427;28;20045;-47
2020/12/02 10:52:15;;;;;;;2.17;1.50;;;23.00;37.00;;;;;;5015284;28;20342;-48
2020/12/02 10:54:45;;;;;;;2.25;1.35;;;23.00;37.00;;;;;;5015151;28;20034;-52
2020/12/02 10:57:24;;;;;;;1.50;1.23;;;23.00;37.00;;;;;;5015287;28;20034;-50
2020/12/02 10:59:58;;;;;;;2.65;1.63;;;23.00;37.00;;;;;;5015219;28;20357;-50
2020/12/02 11:02:30;;;;;;;2.45;1.60;;;22.90;37.00;;;;;;4998146;28;20042;-52
2020/12/02 11:04:57;;;;;;;2.00;1.50;;;23.00;37.10;;;;;;4995573;28;20034;-48
2020/12/02 11:07:31;;;;;;;2.75;1.45;;;22.90;37.00;;;;;;4995650;28;20042;-50
2020/12/02 11:10:27;;;;;;;3.10;1.92;;;22.90;37.00;;;;;;4995531;28;20034;-51
2020/12/02 11:12:59;;;;;;;2.95;1.45;;;22.90;37.00;;;;;;4995558;28;20097;-52
2020/12/02 11:15:37;;;;;;;1.98;1.48;;;22.90;37.10;;;;;;5000105;28;20036;-51
2020/12/02 11:18:32;;;;;;;1.70;1.40;;;22.90;37.10;;;;;;5014716;28;20474;-50
2020/12/02 11:21:22;;;;;;;;;;;22.90;37.10;;;;;;4997117;28;20057;-52
2020/12/02 11:24:07;;;;;;;2.20;1.63;;;22.90;37.20;;;;;;5013161;28;19936;-56
2020/12/02 11:26:36;;;;;;;1.77;1.58;;;22.80;37.10;;;;;;5004617;28;20077;-50
2020/12/02 11:29:04;;;;;;;2.38;1.75;;;22.80;37.10;;;;;;5011450;28;20131;-49
2020/12/02 11:31:49;;;;;;;2.15;1.60;;;22.80;37.10;;;;;;5010161;28;20055;-56
2020/12/02 11:34:38;;;;;;;;;;;22.80;37.20;;;;;;5007833;28;20449;-53
2020/12/02 11:37:18;;;;;;;2.50;2.00;;;22.80;37.40;;;;;;5011715;28;19914;-56
2020/12/02 11:39:49;;;;;;;3.25;1.92;;;22.80;37.60;;;;;;5009219;28;20073;-59
2020/12/02 11:42:15;;;;;;;3.40;2.40;;;22.80;37.70;;;;;;5009955;28;20385;-56
2020/12/02 11:44:53;;;;;;;3.42;2.30;;;22.90;37.80;;;;;;5010061;28;20087;-53
2020/12/02 11:47:27;;;;;;;3.72;2.58;;;23.00;37.90;;;;;;5012739;28;20030;-53
2020/12/02 11:50:03;;;;;;;2.97;2.20;;;23.00;37.80;;;;;;5005221;28;20030;-50
2020/12/02 11:52:53;;;;;;;3.28;2.22;;;23.00;37.70;;;;;;5016299;28;20037;-54
2020/12/02 11:55:19;;;;;;;3.88;2.63;;;23.00;37.50;;;;;;5013678;28;20026;-51
2020/12/02 11:57:56;;;;;;;3.33;2.53;;;23.10;37.40;;;;;;4996731;28;20037;-54
2020/12/02 12:00:22;;;;;;;3.65;2.67;;;23.10;37.30;;;;;;5016041;28;20034;-51
2020/12/02 12:03:11;;;;;;;4.07;2.88;;;23.10;37.20;;;;;;5015506;28;20030;-52
2020/12/02 12:05:48;;;;;;;3.55;2.50;;;23.20;37.10;;;;;;5013548;28;20041;-51
2020/12/02 12:08:20;;;;;;;3.22;2.28;;;23.20;37.00;;;;;;5014340;28;20030;-52
2020/12/02 12:11:00;;;;;;;3.42;2.55;;;23.20;37.00;;;;;;5016358;28;20030;-51
2020/12/02 12:13:56;;;;;;;3.05;2.40;;;23.30;36.90;;;;;;5014057;28;20030;-51
2020/12/02 12:16:30;;;;;;;5.25;2.47;;;23.30;36.90;;;;;;5014728;28;20049;-49
2020/12/02 12:19:32;;;;;;;3.35;2.13;;;23.30;36.80;;;;;;5016417;28;20049;-52
2020/12/02 12:22:26;;;;;;;2.63;2.15;;;23.30;36.80;;;;;;5035880;28;20041;-51
2020/12/02 12:24:56;;;;;;;2.70;2.30;;;23.30;36.70;;;;;;5035511;28;20037;-50
2020/12/02 12:27:23;;;;;;;3.25;2.40;;;23.30;36.70;;;;;;5035369;28;20291;-50
2020/12/02 12:29:48;;;;;;;3.72;2.67;;;23.30;36.70;;;;;;5034221;28;20030;-54
2020/12/02 12:32:30;;;;;;;3.45;2.53;;;23.30;36.60;;;;;;5035651;28;20156;-46
2020/12/02 12:35:01;;;;;;;3.78;2.53;;;23.30;36.60;;;;;;5034630;28;20061;-49
2020/12/02 12:37:55;;;;;;;3.63;2.60;;;23.30;36.60;;;;;;5032314;28;20389;-48
2020/12/02 12:40:30;;;;;;;3.60;2.70;;;23.30;36.60;;;;;;5015012;28;20053;-53
2020/12/02 12:42:57;;;;;;;2.63;2.20;;;23.30;36.60;;;;;;5015970;28;20028;-50
2020/12/02 12:45:38;;;;;;;3.95;2.78;;;23.30;36.60;;;;;;5036286;28;20033;-54
2020/12/02 12:48:05;;;;;;;3.35;2.70;;;23.30;36.60;;;;;;5033746;28;20111;-53
2020/12/02 12:50:32;;;;;;;5.28;2.38;;;23.30;36.60;;;;;;5031301;28;20045;-54
2020/12/02 12:53:05;;;;;;;3.88;2.65;;;23.20;36.50;;;;;;5034920;28;20428;-56
2020/12/02 12:55:32;;;;;;;4.05;2.80;;;23.20;36.50;;;;;;5030998;28;20357;-53
2020/12/02 12:58:09;;;;;;;4.40;2.90;;;23.30;36.60;;;;;;5029331;28;20076;-53
2020/12/02 13:00:38;;;;;;;3.08;2.30;;;23.40;36.70;;;;;;5028066;28;20073;-54
2020/12/02 13:03:10;;;;;;;5.72;3.05;;;23.50;36.70;;;;;;5034201;28;20376;-51
2020/12/02 13:05:37;;;;;;;5.30;2.30;;;23.60;36.50;;;;;;5035001;28;20168;-55
2020/12/02 13:08:15;;;;;;;5.80;2.55;;;23.70;36.30;;;;;;5032552;28;20420;-56
2020/12/02 13:10:49;;;;;;;4.05;2.55;;;23.80;36.40;;;;;;5035294;28;20025;-61
2020/12/02 13:13:34;;;;;;;2.78;2.33;;;23.90;36.40;;;;;;5034275;28;20029;-56
2020/12/02 13:16:44;;;;;;;3.25;2.60;;;24.00;36.30;;;;;;5031436;28;20091;-58
2020/12/02 13:19:23;;;;;;;6.38;2.47;;;24.10;36.10;;;;;;5009052;28;20056;-57